Time;durP1;ratioP1;P1;durP2;ratioP2;P2;SDS_P1;SDS_P2;PMS_P1;PMS_P2;Temp;Humidity;BMP_temperature;BMP_pressure;BME280_temperature;BME280_humidity;BME280_pressure;Samples;Min_cycle;Max_cycle;Signal;HPM_P1;HPM_P2
2022/01/13 00:00:18;;;;;;;329.23;37.35;;;4.90;99.90;;;;;;5089957;28;20395;-67
2022/01/13 00:02:45;;;;;;;344.00;35.30;;;4.90;99.90;;;;;;5070430;28;20063;-68
2022/01/13 00:05:11;;;;;;;299.35;34.78;;;5.10;99.90;;;;;;5071879;28;20071;-66
2022/01/13 00:07:37;;;;;;;310.05;35.20;;;5.00;99.90;;;;;;5072748;28;20341;-68
2022/01/13 00:10:04;;;;;;;280.20;32.58;;;5.20;99.90;;;;;;5086386;28;20063;-67
2022/01/13 00:12:35;;;;;;;290.88;33.50;;;4.90;99.90;;;;;;5091512;28;20044;-68
2022/01/13 00:18:17;;;;;;;247.20;29.30;;;5.00;99.90;;;;;;5091552;28;20087;-69
2022/01/13 00:20:35;;;;;;;244.73;29.50;;;5.20;99.90;;;;;;5073908;28;20067;-67
2022/01/13 00:23:40;;;;;;;200.60;25.92;;;5.20;99.90;;;;;;5075147;28;20067;-67
2022/01/13 00:25:53;;;;;;;189.80;25.75;;;5.00;99.90;;;;;;5089933;28;20094;-67
2022/01/13 00:28:21;;;;;;;151.15;23.27;;;4.90;99.90;;;;;;5092537;28;20056;-69
2022/01/13 00:30:51;;;;;;;154.95;24.38;;;4.80;99.90;;;;;;5090649;28;20129;-67
2022/01/13 00:33:23;;;;;;;175.63;25.85;;;5.10;99.90;;;;;;5091355;28;20051;-66
2022/01/13 00:35:48;;;;;;;153.60;23.90;;;5.00;99.90;;;;;;5091770;28;20403;-67
2022/01/13 00:38:14;;;;;;;187.77;27.58;;;4.90;99.90;;;;;;5085841;28;20044;-69
2022/01/13 00:40:39;;;;;;;164.82;25.40;;;4.80;99.90;;;;;;5080198;28;20056;-67
2022/01/13 00:43:05;;;;;;;154.68;24.60;;;4.80;99.90;;;;;;5086237;28;20052;-67
2022/01/13 00:45:30;;;;;;;180.05;25.10;;;5.00;99.90;;;;;;5072275;28;20462;-67
2022/01/13 00:47:56;;;;;;;198.25;27.20;;;4.80;99.90;;;;;;5086792;28;20461;-67
2022/01/13 00:50:21;;;;;;;184.60;27.38;;;4.90;99.90;;;;;;5077554;28;20074;-70
2022/01/13 00:52:47;;;;;;;156.75;25.52;;;4.90;99.90;;;;;;5091023;28;20381;-66
2022/01/13 00:55:20;;;;;;;235.95;28.88;;;4.90;99.90;;;;;;5087141;28;20399;-69
2022/01/13 00:57:45;;;;;;;223.48;29.52;;;5.00;99.90;;;;;;5109216;28;20140;-67
2022/01/13 01:00:12;;;;;;;224.52;31.15;;;4.90;99.90;;;;;;5091390;28;20128;-67
2022/01/13 01:02:37;;;;;;;197.52;27.85;;;4.90;99.90;;;;;;5074976;28;20073;-68
2022/01/13 01:05:03;;;;;;;222.90;28.20;;;4.90;99.90;;;;;;5077075;28;20132;-67
2022/01/13 01:07:29;;;;;;;213.88;28.05;;;4.80;99.90;;;;;;5073001;28;20077;-67
2022/01/13 01:09:58;;;;;;;206.20;27.60;;;4.90;99.90;;;;;;5072488;28;20056;-68
2022/01/13 01:12:23;;;;;;;164.98;24.50;;;5.20;99.90;;;;;;5072077;28;20055;-68
2022/01/13 01:14:55;;;;;;;187.65;25.98;;;4.90;99.90;;;;;;5073864;28;20041;-68
2022/01/13 01:17:20;;;;;;;160.35;24.38;;;4.70;99.90;;;;;;5083019;28;20131;-67
2022/01/13 01:19:49;;;;;;;223.40;28.55;;;5.00;99.90;;;;;;5079491;28;20528;-68
2022/01/13 01:25:07;;;;;;;206.68;27.60;;;4.90;99.90;;;;;;5088336;28;20080;-67
2022/01/13 01:27:41;;;;;;;198.65;27.77;;;4.80;99.90;;;;;;5076582;28;20049;-67
2022/01/13 01:30:54;;;;;;;193.88;28.00;;;5.10;99.90;;;;;;5074265;28;20048;-67
2022/01/13 01:32:56;;;;;;;175.50;26.42;;;4.80;99.90;;;;;;5070823;28;20056;-67
2022/01/13 01:35:25;;;;;;;147.27;24.67;;;4.90;99.90;;;;;;5075305;28;20123;-68
2022/01/13 01:37:52;;;;;;;169.43;26.35;;;4.90;99.90;;;;;;5088991;28;20498;-67
2022/01/13 01:40:19;;;;;;;166.43;25.50;;;4.90;99.90;;;;;;5095116;28;20056;-67
2022/01/13 01:42:46;;;;;;;185.93;27.15;;;4.90;99.90;;;;;;5091840;28;20040;-68
2022/01/13 01:45:13;;;;;;;209.75;27.05;;;5.00;99.90;;;;;;5075426;28;20056;-67
2022/01/13 01:47:39;;;;;;;155.57;24.10;;;5.10;99.90;;;;;;5074470;28;20087;-67
2022/01/13 01:50:17;;;;;;;168.82;24.77;;;4.70;99.90;;;;;;5075607;28;20136;-66
2022/01/13 01:52:52;;;;;;;181.57;25.65;;;4.90;99.90;;;;;;5085904;28;20488;-67
2022/01/13 01:55:18;;;;;;;258.27;29.67;;;4.90;99.90;;;;;;5086770;28;20067;-67
2022/01/13 01:57:47;;;;;;;235.73;28.13;;;4.80;99.90;;;;;;5073844;28;20385;-67
2022/01/13 02:00:16;;;;;;;217.23;28.20;;;5.00;99.90;;;;;;5073907;28;20048;-67
2022/01/13 02:02:43;;;;;;;188.15;26.05;;;4.90;99.90;;;;;;5074038;28;20091;-68
2022/01/13 02:05:09;;;;;;;161.43;24.00;;;5.00;99.90;;;;;;5075074;28;20053;-67
2022/01/13 02:07:35;;;;;;;232.02;29.65;;;4.90;99.90;;;;;;5081308;28;20056;-68
2022/01/13 02:10:01;;;;;;;188.13;25.50;;;5.00;99.90;;;;;;5074679;28;20048;-66
2022/01/13 02:12:34;;;;;;;202.77;27.35;;;5.10;99.90;;;;;;5073359;28;20060;-67
2022/01/13 02:17:39;;;;;;;160.02;23.40;;;5.10;99.90;;;;;;5093968;28;20052;-68
2022/01/13 02:20:06;;;;;;;185.45;25.90;;;4.90;99.90;;;;;;5127402;27;20056;-66
2022/01/13 02:22:32;;;;;;;219.57;28.15;;;5.00;99.90;;;;;;5092940;28;20064;-68
2022/01/13 02:24:58;;;;;;;214.80;27.10;;;4.90;99.90;;;;;;5090522;28;20052;-67
2022/01/13 02:27:24;;;;;;;187.75;27.00;;;5.00;99.90;;;;;;5114709;28;20055;-68
2022/01/13 02:29:50;;;;;;;143.60;25.20;;;4.80;99.90;;;;;;5105801;28;20067;-67
2022/01/13 02:32:16;;;;;;;122.53;23.63;;;4.90;99.90;;;;;;5092482;28;20058;-67
2022/01/13 02:34:42;;;;;;;148.90;23.80;;;4.90;99.90;;;;;;5090861;28;20056;-67
2022/01/13 02:37:07;;;;;;;178.27;25.80;;;5.10;99.90;;;;;;5093385;28;20051;-68
2022/01/13 02:39:33;;;;;;;149.88;25.90;;;5.00;99.90;;;;;;5084827;28;20526;-67
2022/01/13 02:42:01;;;;;;;160.30;24.40;;;5.10;99.90;;;;;;5107290;28;20088;-67
2022/01/13 02:44:26;;;;;;;171.27;25.45;;;4.90;99.90;;;;;;5072901;28;20056;-67
2022/01/13 02:47:09;;;;;;;136.52;24.60;;;5.20;99.90;;;;;;5082169;28;20127;-67
2022/01/13 02:49:35;;;;;;;128.30;22.83;;;5.00;99.90;;;;;;5083931;28;20056;-67
2022/01/13 02:52:02;;;;;;;139.73;23.92;;;5.20;99.90;;;;;;5082411;28;20052;-68
2022/01/13 02:54:28;;;;;;;105.82;20.52;;;4.90;99.90;;;;;;5087946;28;20040;-66
2022/01/13 02:56:54;;;;;;;127.40;21.92;;;5.20;99.90;;;;;;5079666;28;20435;-67
2022/01/13 02:59:19;;;;;;;116.20;21.55;;;4.80;99.90;;;;;;5089960;28;20054;-67
2022/01/13 03:01:45;;;;;;;108.82;18.70;;;4.90;99.90;;;;;;5079482;28;20137;-67
2022/01/13 03:04:11;;;;;;;148.25;22.90;;;4.90;99.90;;;;;;5092349;28;20514;-67
2022/01/13 03:06:39;;;;;;;159.43;24.05;;;4.80;99.90;;;;;;5093210;28;20139;-68
2022/01/13 03:09:07;;;;;;;142.23;23.63;;;4.80;99.90;;;;;;5088726;28;20044;-67
2022/01/13 03:11:39;;;;;;;183.88;26.75;;;4.70;99.90;;;;;;5082518;28;20083;-67
2022/01/13 03:14:10;;;;;;;128.83;24.23;;;4.50;99.90;;;;;;5074444;28;20056;-66
2022/01/13 03:16:37;;;;;;;148.52;24.65;;;5.20;99.90;;;;;;5089339;28;20052;-67
2022/01/13 03:19:03;;;;;;;168.82;27.40;;;5.10;99.90;;;;;;5121632;27;20048;-67
2022/01/13 03:21:29;;;;;;;164.55;25.83;;;5.00;99.90;;;;;;5081497;28;20087;-68
2022/01/13 03:23:54;;;;;;;149.68;25.40;;;4.90;99.90;;;;;;5083085;28;20507;-68
2022/01/13 03:26:21;;;;;;;160.60;25.77;;;5.20;99.90;;;;;;5092595;28;20052;-67
2022/01/13 03:28:51;;;;;;;196.20;27.73;;;4.80;99.90;;;;;;5087510;28;20045;-67
2022/01/13 03:31:19;;;;;;;213.30;28.65;;;5.10;99.90;;;;;;5073120;28;20045;-68
2022/01/13 03:33:45;;;;;;;172.23;26.88;;;4.50;99.90;;;;;;5120822;27;20055;-68
2022/01/13 03:36:11;;;;;;;144.40;25.48;;;5.10;99.90;;;;;;5089496;28;20056;-67
2022/01/13 03:38:38;;;;;;;154.25;23.85;;;4.90;99.90;;;;;;5090869;28;20063;-67
2022/01/13 03:41:03;;;;;;;124.95;22.88;;;4.90;99.90;;;;;;5073407;28;20074;-67
2022/01/13 03:43:30;;;;;;;133.20;22.92;;;5.10;99.90;;;;;;5071910;28;20173;-67
2022/01/13 03:45:56;;;;;;;147.13;23.17;;;4.90;99.90;;;;;;5071798;28;20045;-68
2022/01/13 03:48:21;;;;;;;131.23;21.88;;;4.90;99.90;;;;;;5071539;28;20488;-65
2022/01/13 03:50:47;;;;;;;110.38;21.70;;;4.80;99.90;;;;;;5071569;28;20052;-68
2022/01/13 03:53:28;;;;;;;130.15;22.58;;;5.00;99.90;;;;;;5073532;28;20066;-68
2022/01/13 03:56:28;;;;;;;140.25;23.67;;;4.90;99.90;;;;;;5083375;28;20160;-67
2022/01/13 03:59:36;;;;;;;137.63;22.80;;;4.90;99.90;;;;;;5073214;28;20052;-69
2022/01/13 04:02:14;;;;;;;159.55;25.45;;;4.80;99.90;;;;;;5072574;28;20048;-68
2022/01/13 04:04:42;;;;;;;207.35;28.75;;;5.00;99.90;;;;;;5071590;28;20051;-66
2022/01/13 04:07:13;;;;;;;207.30;28.70;;;5.10;99.90;;;;;;5071635;28;20052;-67
2022/01/13 04:09:39;;;;;;;212.82;28.13;;;4.90;99.90;;;;;;5076376;28;20052;-67
2022/01/13 04:12:07;;;;;;;209.88;29.15;;;4.90;99.90;;;;;;5071440;28;20048;-67
2022/01/13 04:14:55;;;;;;;224.50;28.02;;;4.90;99.90;;;;;;5072517;28;20060;-68
2022/01/13 04:17:23;;;;;;;194.52;27.50;;;4.80;99.90;;;;;;5071157;28;20048;-68
2022/01/13 04:19:50;;;;;;;178.30;26.15;;;4.90;99.90;;;;;;5082648;28;20052;-68
2022/01/13 04:22:17;;;;;;;181.80;25.15;;;4.80;99.90;;;;;;5089827;28;20056;-67
2022/01/13 04:24:45;;;;;;;200.57;26.00;;;4.80;99.90;;;;;;5082453;28;20049;-68
2022/01/13 04:27:21;;;;;;;187.60;25.65;;;4.80;99.90;;;;;;5071927;28;20048;-66
2022/01/13 04:29:48;;;;;;;149.27;24.02;;;4.90;99.90;;;;;;5088854;28;20044;-69
2022/01/13 04:32:14;;;;;;;164.93;25.38;;;4.70;99.90;;;;;;5077111;28;20105;-68
2022/01/13 04:34:40;;;;;;;208.60;28.85;;;4.80;99.90;;;;;;5090736;28;20044;-69
2022/01/13 04:37:05;;;;;;;182.32;26.67;;;4.90;99.90;;;;;;5090960;28;20040;-69
2022/01/13 04:39:32;;;;;;;188.88;24.20;;;4.80;99.90;;;;;;5087058;28;20154;-67
2022/01/13 04:41:58;;;;;;;171.15;25.60;;;5.00;99.90;;;;;;5071513;28;20052;-68
2022/01/13 04:44:25;;;;;;;192.07;27.08;;;4.90;99.90;;;;;;5092218;28;20058;-67
2022/01/13 04:46:54;;;;;;;168.55;24.88;;;4.90;99.90;;;;;;5083597;28;20052;-66
2022/01/13 04:49:21;;;;;;;166.95;24.45;;;4.80;99.90;;;;;;5073583;28;20060;-68
2022/01/13 04:51:49;;;;;;;182.63;26.67;;;5.00;99.90;;;;;;5077695;28;20048;-68
2022/01/13 04:54:15;;;;;;;164.23;24.23;;;4.70;99.90;;;;;;5092302;28;20075;-67
2022/01/13 04:56:44;;;;;;;138.18;22.27;;;4.90;99.90;;;;;;5074340;28;20098;-67
2022/01/13 04:59:11;;;;;;;154.40;25.05;;;4.90;99.90;;;;;;5076487;28;20064;-68
2022/01/13 05:01:38;;;;;;;152.02;22.85;;;4.90;99.90;;;;;;5075490;28;20056;-67
2022/01/13 05:04:05;;;;;;;143.48;23.65;;;5.00;99.90;;;;;;5084986;28;20056;-67
2022/01/13 05:06:30;;;;;;;134.93;23.80;;;4.70;99.90;;;;;;5095835;28;20173;-68
2022/01/13 05:08:58;;;;;;;154.43;25.40;;;4.80;99.90;;;;;;5093884;28;20088;-67
2022/01/13 05:11:24;;;;;;;163.90;24.88;;;4.60;99.90;;;;;;5075320;28;20099;-67
2022/01/13 05:13:50;;;;;;;152.70;24.10;;;4.70;99.90;;;;;;5089016;28;20052;-68
2022/01/13 05:16:22;;;;;;;157.52;24.88;;;4.80;99.90;;;;;;5082193;28;20055;-68
2022/01/13 05:19:11;;;;;;;154.63;24.98;;;5.00;99.90;;;;;;5094165;28;20062;-67
2022/01/13 05:24:18;;;;;;;137.73;24.15;;;4.90;99.90;;;;;;5086640;28;20349;-68
2022/01/13 05:26:43;;;;;;;148.82;23.70;;;4.70;99.90;;;;;;5080615;28;20094;-68
2022/01/13 05:29:12;;;;;;;160.45;24.42;;;4.80;99.90;;;;;;5074355;28;20053;-68
2022/01/13 05:31:37;;;;;;;160.77;25.45;;;4.90;99.90;;;;;;5086744;28;20496;-67
2022/01/13 05:34:03;;;;;;;144.63;24.20;;;4.70;99.90;;;;;;5078290;28;20044;-67
2022/01/13 05:36:29;;;;;;;116.00;21.65;;;4.80;99.90;;;;;;5089288;28;20540;-67
2022/01/13 05:38:54;;;;;;;152.30;23.55;;;4.70;99.90;;;;;;5073917;28;20048;-66
2022/01/13 05:41:20;;;;;;;139.98;23.83;;;4.80;99.90;;;;;;5073623;28;20155;-67
2022/01/13 05:43:45;;;;;;;140.05;23.77;;;4.80;99.90;;;;;;5074593;28;20151;-67
2022/01/13 05:46:12;;;;;;;159.27;24.77;;;4.70;99.90;;;;;;5080150;28;20051;-68
2022/01/13 05:48:37;;;;;;;127.35;22.27;;;4.60;99.90;;;;;;5093824;28;20494;-68
2022/01/13 05:51:03;;;;;;;155.55;24.40;;;4.60;99.90;;;;;;5094712;28;20048;-66
2022/01/13 05:53:28;;;;;;;97.93;16.77;;;4.70;99.90;;;;;;5090623;28;20396;-67
2022/01/13 05:55:54;;;;;;;113.15;19.33;;;4.80;99.90;;;;;;5094034;28;20380;-67
2022/01/13 05:58:19;;;;;;;136.18;22.23;;;4.80;99.90;;;;;;5077287;28;20472;-68
2022/01/13 06:00:45;;;;;;;117.78;19.85;;;4.60;99.90;;;;;;5075809;28;20059;-67
2022/01/13 06:03:10;;;;;;;138.63;22.02;;;4.70;99.90;;;;;;5077808;28;20048;-66
2022/01/13 06:05:37;;;;;;;155.57;23.27;;;4.90;99.90;;;;;;5082078;28;20043;-68
2022/01/13 06:08:03;;;;;;;149.43;21.00;;;4.50;99.90;;;;;;5088200;28;20059;-67
2022/01/13 06:10:29;;;;;;;136.32;20.77;;;4.60;99.90;;;;;;5094372;28;20052;-67
2022/01/13 06:12:54;;;;;;;129.35;20.42;;;4.60;99.90;;;;;;5092291;28;20052;-68
2022/01/13 06:15:23;;;;;;;121.78;21.20;;;4.80;99.90;;;;;;5077040;28;20143;-68
2022/01/13 06:17:50;;;;;;;127.72;22.05;;;4.70;99.90;;;;;;5091478;28;20415;-67
2022/01/13 06:20:18;;;;;;;155.32;23.17;;;4.70;99.90;;;;;;5088316;28;20542;-67
2022/01/13 06:22:45;;;;;;;129.85;23.52;;;4.80;99.90;;;;;;5073903;28;20045;-67
2022/01/13 06:25:12;;;;;;;147.02;21.90;;;4.90;99.90;;;;;;5078122;28;20109;-68
2022/01/13 06:27:39;;;;;;;122.80;21.33;;;5.10;99.90;;;;;;5084096;28;20396;-67
2022/01/13 06:30:08;;;;;;;161.05;24.00;;;4.50;99.90;;;;;;5073572;28;20071;-66
2022/01/13 06:32:34;;;;;;;136.65;22.80;;;4.70;99.90;;;;;;5090197;28;20470;-68
2022/01/13 06:34:59;;;;;;;143.68;23.30;;;4.90;99.90;;;;;;5071416;28;20037;-68
2022/01/13 06:37:25;;;;;;;113.05;20.08;;;4.70;99.90;;;;;;5084510;28;20060;-67
2022/01/13 06:39:51;;;;;;;147.65;22.80;;;4.90;99.90;;;;;;5093337;28;20056;-68
2022/01/13 06:42:17;;;;;;;146.45;23.13;;;4.70;99.90;;;;;;5072942;28;20052;-68
2022/01/13 06:44:44;;;;;;;120.30;22.73;;;4.50;99.90;;;;;;5092019;28;20232;-67
2022/01/13 06:47:10;;;;;;;147.55;22.60;;;4.60;99.90;;;;;;5089477;28;20039;-67
2022/01/13 06:49:36;;;;;;;129.77;21.58;;;4.50;99.90;;;;;;5073256;28;20393;-67
2022/01/13 06:52:02;;;;;;;144.77;21.90;;;4.60;99.90;;;;;;5075409;28;20083;-68
2022/01/13 06:54:28;;;;;;;142.65;22.00;;;4.80;99.90;;;;;;5093671;28;20048;-68
2022/01/13 06:56:54;;;;;;;129.07;21.30;;;4.70;99.90;;;;;;5081929;28;20540;-69
2022/01/13 06:59:20;;;;;;;148.00;21.73;;;4.60;99.90;;;;;;5072456;28;20080;-67
2022/01/13 07:01:48;;;;;;;135.25;22.00;;;4.90;99.90;;;;;;5074174;28;20051;-68
2022/01/13 07:04:15;;;;;;;121.45;21.48;;;4.70;99.90;;;;;;5080827;28;20084;-68
2022/01/13 07:06:43;;;;;;;146.88;22.38;;;4.80;99.90;;;;;;5074897;28;20089;-67
2022/01/13 07:09:11;;;;;;;128.18;21.58;;;4.50;99.90;;;;;;5084270;28;20168;-67
2022/01/13 07:11:37;;;;;;;127.80;21.80;;;4.90;99.90;;;;;;5089464;28;20333;-67
2022/01/13 07:14:03;;;;;;;144.55;23.50;;;4.60;99.90;;;;;;5086059;28;20044;-67
2022/01/13 07:16:29;;;;;;;153.48;23.67;;;4.60;99.90;;;;;;5084742;28;20131;-67
2022/01/13 07:18:55;;;;;;;123.43;21.67;;;4.60;99.90;;;;;;5084634;28;20535;-67
2022/01/13 07:21:24;;;;;;;126.38;22.25;;;4.60;99.90;;;;;;5093666;28;20098;-68
2022/01/13 07:23:49;;;;;;;145.40;23.42;;;4.50;99.90;;;;;;5092410;28;20048;-68
2022/01/13 07:26:15;;;;;;;144.75;24.25;;;4.60;99.90;;;;;;5092356;28;20495;-67
2022/01/13 07:28:41;;;;;;;145.60;22.80;;;4.60;99.90;;;;;;5089919;28;20056;-67
2022/01/13 07:31:07;;;;;;;135.65;22.40;;;4.50;99.90;;;;;;5092307;28;20063;-67
2022/01/13 07:33:32;;;;;;;127.05;21.52;;;4.70;99.90;;;;;;5093783;28;20060;-66
2022/01/13 07:35:58;;;;;;;124.18;21.45;;;4.80;99.90;;;;;;5092094;28;20063;-67
2022/01/13 07:38:23;;;;;;;124.25;22.10;;;4.70;99.90;;;;;;5092206;28;20414;-66
2022/01/13 07:40:50;;;;;;;146.80;24.38;;;4.70;99.90;;;;;;5075186;28;20484;-67
2022/01/13 07:43:22;;;;;;;127.28;22.48;;;4.50;99.90;;;;;;5092464;28;20573;-67
2022/01/13 07:45:49;;;;;;;109.32;21.48;;;4.50;99.90;;;;;;5090839;28;20044;-67
2022/01/13 07:48:14;;;;;;;139.30;22.48;;;4.70;99.90;;;;;;5093136;28;20522;-67
2022/01/13 07:50:40;;;;;;;132.65;22.63;;;4.60;99.90;;;;;;5091705;28;20048;-68
2022/01/13 07:53:06;;;;;;;112.28;22.48;;;4.80;99.90;;;;;;5091248;28;20052;-68
2022/01/13 07:55:31;;;;;;;129.50;22.40;;;4.70;99.90;;;;;;5090988;28;20087;-67
2022/01/13 07:57:57;;;;;;;116.65;22.02;;;4.60;99.90;;;;;;5093145;28;20533;-67
2022/01/13 08:00:22;;;;;;;154.75;23.52;;;4.60;99.90;;;;;;5092739;28;20070;-68
2022/01/13 08:02:48;;;;;;;136.65;22.90;;;4.60;99.90;;;;;;5089861;28;20048;-69
2022/01/13 08:05:14;;;;;;;130.88;23.25;;;4.80;99.90;;;;;;5092738;28;20056;-68
2022/01/13 08:07:40;;;;;;;115.43;22.10;;;5.00;99.90;;;;;;5092155;28;20131;-68
2022/01/13 08:10:06;;;;;;;109.22;21.13;;;4.80;99.90;;;;;;5092224;28;20052;-68
2022/01/13 08:12:31;;;;;;;112.03;20.58;;;4.80;99.90;;;;;;5091948;28;20063;-67
2022/01/13 08:14:57;;;;;;;113.65;21.90;;;4.80;99.90;;;;;;5093033;28;20051;-66
2022/01/13 08:20:08;;;;;;;109.00;21.35;;;4.70;99.90;;;;;;5092198;28;20494;-67
2022/01/13 08:22:34;;;;;;;120.28;21.38;;;4.70;99.90;;;;;;5074999;28;20566;-67
2022/01/13 08:25:00;;;;;;;98.80;20.67;;;;;;;;;;5095475;28;20044;-67
2022/01/13 08:27:27;;;;;;;111.38;21.65;;;;;;;;;;5086039;28;20063;-66
2022/01/13 08:29:53;;;;;;;111.53;21.38;;;4.80;99.90;;;;;;5087215;28;20490;-67
2022/01/13 08:32:20;;;;;;;113.05;22.27;;;;;;;;;;5075010;28;20138;-67
2022/01/13 08:34:48;;;;;;;100.00;21.00;;;;;;;;;;5083260;28;20147;-66
2022/01/13 08:37:15;;;;;;;132.75;24.50;;;;;;;;;;5096540;28;20591;-67
2022/01/13 08:39:44;;;;;;;121.15;23.55;;;;;;;;;;5094462;28;20414;-67
2022/01/13 08:42:12;;;;;;;132.02;23.20;;;5.20;99.90;;;;;;5095447;28;20048;-67
2022/01/13 08:44:38;;;;;;;129.35;22.33;;;4.70;99.90;;;;;;5129277;27;20054;-67
2022/01/13 08:47:04;;;;;;;129.25;23.30;;;5.00;99.90;;;;;;5096215;28;20131;-66
2022/01/13 08:49:30;;;;;;;122.93;23.58;;;5.00;99.90;;;;;;5095730;28;20044;-68
2022/01/13 08:51:56;;;;;;;115.05;20.88;;;5.50;99.90;;;;;;5094019;28;20053;-67
2022/01/13 08:54:22;;;;;;;113.70;21.65;;;5.70;99.90;;;;;;5094669;28;20060;-66
2022/01/13 08:56:48;;;;;;;114.57;22.95;;;4.80;99.90;;;;;;5096504;28;20055;-66
2022/01/13 08:59:13;;;;;;;100.22;20.98;;;4.80;99.90;;;;;;5096516;28;20044;-68
2022/01/13 09:01:39;;;;;;;123.28;23.60;;;5.10;99.90;;;;;;5095844;28;20096;-67
2022/01/13 09:04:05;;;;;;;124.43;23.40;;;5.10;99.90;;;;;;5095092;28;20109;-66
2022/01/13 09:06:31;;;;;;;108.80;21.92;;;5.00;99.90;;;;;;5096008;28;20140;-67
2022/01/13 09:08:56;;;;;;;111.38;23.02;;;5.10;99.90;;;;;;5087266;28;20136;-67
2022/01/13 09:11:22;;;;;;;129.18;22.83;;;5.00;99.90;;;;;;5088466;28;20126;-67
2022/01/13 09:13:55;;;;;;;109.78;22.15;;;5.20;99.90;;;;;;5094715;28;20076;-67
2022/01/13 09:16:23;;;;;;;113.20;20.50;;;5.50;99.90;;;;;;5095749;28;20056;-67
2022/01/13 09:21:25;;;;;;;118.00;22.75;;;5.40;99.90;;;;;;5094929;28;20047;-68
2022/01/13 09:23:51;;;;;;;107.00;21.50;;;4.70;99.90;;;;;;5078017;28;20052;-67
2022/01/13 09:26:17;;;;;;;101.85;19.75;;;4.70;99.90;;;;;;5072635;28;20060;-67
2022/01/13 09:28:43;;;;;;;114.78;21.83;;;5.90;99.90;;;;;;5089222;28;20067;-68
2022/01/13 09:31:09;;;;;;;108.28;22.17;;;5.40;99.90;;;;;;5083713;28;20090;-67
2022/01/13 09:33:35;;;;;;;118.60;21.90;;;5.20;99.90;;;;;;5078218;28;20060;-67
2022/01/13 09:36:01;;;;;;;98.90;21.58;;;4.70;99.90;;;;;;5081729;28;20048;-66
2022/01/13 09:38:27;;;;;;;109.20;22.17;;;5.90;99.90;;;;;;5094094;28;20106;-67
2022/01/13 09:40:53;;;;;;;121.18;23.58;;;5.30;99.90;;;;;;5093964;28;20052;-67
2022/01/13 09:43:25;;;;;;;125.22;22.88;;;5.20;99.90;;;;;;5075976;28;20373;-66
2022/01/13 09:45:52;;;;;;;131.30;23.40;;;;;;;;;;5073552;28;20068;-67
2022/01/13 09:48:17;;;;;;;115.88;22.40;;;5.50;99.90;;;;;;5074530;28;20056;-68
2022/01/13 09:50:48;;;;;;;107.25;23.52;;;5.80;99.90;;;;;;5083190;28;20108;-66
2022/01/13 09:53:17;;;;;;;102.50;22.77;;;5.40;99.90;;;;;;5095706;28;20053;-67
2022/01/13 09:55:44;;;;;;;109.00;22.23;;;5.40;99.90;;;;;;5094863;28;20048;-68
2022/01/13 09:58:11;;;;;;;108.18;23.10;;;5.40;99.90;;;;;;5095499;28;20185;-67
2022/01/13 10:00:42;;;;;;;127.43;24.25;;;5.40;99.90;;;;;;5095190;28;20051;-68
2022/01/13 10:03:23;;;;;;;117.65;24.08;;;5.60;99.90;;;;;;5094025;28;20048;-68
2022/01/13 10:05:58;;;;;;;118.25;22.88;;;5.80;99.90;;;;;;5093837;28;20056;-68
2022/01/13 10:08:40;;;;;;;125.15;23.70;;;5.50;99.90;;;;;;5094952;28;20132;-67
2022/01/13 10:11:40;;;;;;;109.70;22.45;;;5.30;99.90;;;;;;5083755;28;20056;-67
2022/01/13 10:17:10;;;;;;;112.60;23.73;;;5.60;99.90;;;;;;5072674;28;20048;-67
2022/01/13 10:19:44;;;;;;;128.33;23.47;;;5.70;99.90;;;;;;5094023;28;20123;-67
2022/01/13 10:22:11;;;;;;;112.07;23.08;;;5.80;99.90;;;;;;5094020;28;20050;-67
2022/01/13 10:24:42;;;;;;;97.90;23.20;;;5.70;99.90;;;;;;5093669;28;20093;-67
2022/01/13 10:27:19;;;;;;;112.93;22.92;;;5.70;99.90;;;;;;5094871;28;20047;-67
2022/01/13 10:29:52;;;;;;;104.80;23.48;;;6.10;99.90;;;;;;5093652;28;20090;-67
2022/01/13 10:32:22;;;;;;;102.15;24.05;;;5.80;99.90;;;;;;5093036;28;20044;-68
2022/01/13 10:34:50;;;;;;;99.72;22.27;;;5.20;99.90;;;;;;5094216;28;20130;-67
2022/01/13 10:37:27;;;;;;;104.35;23.52;;;6.00;99.90;;;;;;5094514;28;20047;-68
2022/01/13 10:40:07;;;;;;;87.78;22.08;;;5.90;99.90;;;;;;5092709;28;20044;-67
2022/01/13 10:45:07;;;;;;;111.05;23.10;;;5.80;99.90;;;;;;5094725;28;20056;-67
2022/01/13 10:47:33;;;;;;;106.75;22.83;;;5.80;99.90;;;;;;5093323;28;20105;-67
2022/01/13 10:50:07;;;;;;;97.00;22.63;;;6.00;99.90;;;;;;5093158;28;20048;-67
2022/01/13 10:52:32;;;;;;;104.00;23.85;;;5.80;99.90;;;;;;5076048;28;20044;-67
2022/01/13 10:55:20;;;;;;;103.25;23.50;;;5.70;99.90;;;;;;5091901;28;20097;-67
2022/01/13 10:57:46;;;;;;;98.35;21.95;;;5.40;99.90;;;;;;5094260;28;20058;-67
2022/01/13 11:00:18;;;;;;;96.45;22.00;;;6.20;99.90;;;;;;5092868;28;20063;-68
2022/01/13 11:03:02;;;;;;;95.60;21.10;;;5.80;99.90;;;;;;5093095;28;20063;-67
2022/01/13 11:05:30;;;;;;;90.43;21.77;;;6.00;99.90;;;;;;5094191;28;20146;-67
2022/01/13 11:08:01;;;;;;;92.53;20.23;;;6.20;99.90;;;;;;5091240;28;20090;-68
2022/01/13 11:10:27;;;;;;;92.57;21.58;;;5.10;99.90;;;;;;5080862;28;20392;-68
2022/01/13 11:12:58;;;;;;;83.00;20.40;;;6.00;99.90;;;;;;5078730;28;20048;-68
2022/01/13 11:15:24;;;;;;;102.47;22.42;;;6.10;99.90;;;;;;5081444;28;20059;-68
2022/01/13 11:17:53;;;;;;;83.20;19.63;;;5.90;99.90;;;;;;5071515;28;20170;-67
2022/01/13 11:20:20;;;;;;;80.75;21.85;;;6.00;99.90;;;;;;5106186;27;20048;-67
2022/01/13 11:22:57;;;;;;;94.85;20.88;;;6.00;99.90;;;;;;5061530;28;20067;-67
2022/01/13 11:25:24;;;;;;;93.78;21.63;;;5.80;99.90;;;;;;5093740;28;20059;-67
2022/01/13 11:27:55;;;;;;;86.38;20.45;;;5.40;99.90;;;;;;5093598;28;20047;-66
2022/01/13 11:30:24;;;;;;;89.00;21.10;;;5.70;99.90;;;;;;5073065;28;20123;-67
2022/01/13 11:32:50;;;;;;;78.03;20.00;;;5.50;99.90;;;;;;5072940;28;20092;-66
2022/01/13 11:35:28;;;;;;;79.57;20.92;;;5.80;99.90;;;;;;5073406;28;20164;-67
2022/01/13 11:37:56;;;;;;;85.80;20.80;;;6.00;99.90;;;;;;5073232;28;20084;-67
2022/01/13 11:40:28;;;;;;;82.45;20.77;;;5.80;99.90;;;;;;5087628;28;20113;-67
2022/01/13 11:42:58;;;;;;;87.93;21.35;;;6.00;99.90;;;;;;5093498;28;20060;-66
2022/01/13 11:45:24;;;;;;;76.05;19.73;;;5.70;99.90;;;;;;5063320;28;20045;-66
2022/01/13 11:48:27;;;;;;;88.93;22.25;;;6.00;99.90;;;;;;5072766;28;20052;-66
2022/01/13 11:51:15;;;;;;;90.23;21.90;;;5.90;99.90;;;;;;5053875;28;20056;-68
2022/01/13 11:54:02;;;;;;;89.60;20.88;;;6.30;99.90;;;;;;5074004;28;20520;-67
2022/01/13 11:56:28;;;;;;;85.45;22.17;;;5.80;99.90;;;;;;5107898;27;20056;-68
2022/01/13 11:58:54;;;;;;;86.10;21.67;;;5.70;99.90;;;;;;5071387;28;20458;-66
2022/01/13 12:01:22;;;;;;;98.15;23.33;;;5.80;99.90;;;;;;5072582;28;20052;-67
2022/01/13 12:03:49;;;;;;;91.20;22.17;;;6.00;99.90;;;;;;5072009;28;20052;-67
2022/01/13 12:06:38;;;;;;;87.43;21.88;;;6.30;99.90;;;;;;5072960;28;20094;-67
2022/01/13 12:09:22;;;;;;;96.20;22.33;;;6.10;99.90;;;;;;5077551;28;20052;-68
2022/01/13 12:11:54;;;;;;;93.75;25.17;;;6.00;99.90;;;;;;5091323;28;20407;-69
2022/01/13 12:14:23;;;;;;;99.30;23.95;;;6.00;99.90;;;;;;5092287;28;20044;-66
2022/01/13 12:16:55;;;;;;;92.28;24.23;;;5.90;99.90;;;;;;5092221;28;20047;-68
2022/01/13 12:19:35;;;;;;;87.60;23.20;;;5.90;99.90;;;;;;5093257;28;20085;-68
2022/01/13 12:22:07;;;;;;;91.13;23.30;;;6.20;99.90;;;;;;5091662;28;20365;-67
2022/01/13 12:24:50;;;;;;;88.03;20.73;;;6.00;99.90;;;;;;5087738;28;20036;-67
2022/01/13 12:27:19;;;;;;;98.05;22.05;;;6.00;99.90;;;;;;5077938;28;20056;-67
2022/01/13 12:29:51;;;;;;;92.43;23.65;;;5.90;99.90;;;;;;5072292;28;20049;-67
2022/01/13 12:32:43;;;;;;;113.55;24.90;;;5.90;99.90;;;;;;5086919;28;20248;-67
2022/01/13 12:35:10;;;;;;;;;;;5.90;99.90;;;;;;5093664;28;20067;-68
2022/01/13 12:37:39;;;;;;;90.63;24.88;;;5.80;99.90;;;;;;5090922;28;20376;-67
2022/01/13 12:40:09;;;;;;;107.10;25.88;;;5.90;99.90;;;;;;5090947;28;20063;-69
2022/01/13 12:42:50;;;;;;;95.88;23.02;;;5.90;99.90;;;;;;5074412;28;20052;-67
2022/01/13 12:45:28;;;;;;;96.93;24.20;;;5.90;99.90;;;;;;5092445;28;20056;-67
2022/01/13 12:48:14;;;;;;;108.70;25.33;;;5.90;99.90;;;;;;5081881;28;20132;-68
2022/01/13 12:50:46;;;;;;;100.60;23.98;;;5.90;99.90;;;;;;5091028;28;20070;-68
2022/01/13 12:53:20;;;;;;;105.93;24.38;;;5.90;99.90;;;;;;5092445;28;20060;-66
2022/01/13 12:56:12;;;;;;;96.25;25.60;;;5.90;99.90;;;;;;5092257;28;20047;-65
2022/01/13 12:58:45;;;;;;;101.07;25.50;;;5.90;99.90;;;;;;5091560;28;20087;-67
2022/01/13 13:01:12;;;;;;;;;;;5.90;99.90;;;;;;5089946;28;20052;-66